createdAt,value
2023-05-18T00:04:55.045Z,26.00
2023-05-18T00:10:00.331Z,25.00
2023-05-18T00:15:05.308Z,28.50
2023-05-18T00:20:11.416Z,28.00
2023-05-18T00:25:16.184Z,26.25
2023-05-18T00:30:21.399Z,28.50
2023-05-18T00:35:26.480Z,26.00
2023-05-18T00:40:34.434Z,26.75
2023-05-18T00:45:39.401Z,25.00
2023-05-18T00:50:44.660Z,29.00
2023-05-18T00:55:50.179Z,28.50
2023-05-18T01:00:55.398Z,30.75
2023-05-18T01:06:01.016Z,29.00
2023-05-18T01:11:37.699Z,31.50
2023-05-18T01:16:50.572Z,29.50
2023-05-18T01:21:59.879Z,29.50
2023-05-18T01:27:06.271Z,28.75
2023-05-18T01:32:11.428Z,30.25
2023-05-18T01:37:16.579Z,35.25
2023-05-18T01:42:28.298Z,30.50
2023-05-18T01:47:34.649Z,28.50
2023-05-18T01:53:01.992Z,26.50
2023-05-18T01:58:08.572Z,32.00
2023-05-18T02:03:14.752Z,28.25
2023-05-18T02:08:19.792Z,29.25
2023-05-18T02:13:25.031Z,29.00
2023-05-18T02:18:30.691Z,25.50
2023-05-18T02:23:35.878Z,25.50
2023-05-18T02:28:44.725Z,22.25
2023-05-18T02:33:49.502Z,24.50
2023-05-18T02:38:54.607Z,23.25
2023-05-18T02:43:59.716Z,22.25
2023-05-18T02:49:04.631Z,21.50
2023-05-18T02:54:09.827Z,24.75
2023-05-18T02:59:17.557Z,17.50
2023-05-18T03:04:23.409Z,21.25
2023-05-18T03:09:30.820Z,18.00
2023-05-18T03:14:35.984Z,18.00
2023-05-18T03:19:42.024Z,16.25
2023-05-18T03:24:47.062Z,16.75
2023-05-18T03:29:55.714Z,19.00
2023-05-18T03:35:02.471Z,15.00
2023-05-18T03:40:26.328Z,17.75
2023-05-18T03:45:31.558Z,18.75
2023-05-18T03:50:36.596Z,14.50
2023-05-18T03:55:43.349Z,15.00
2023-05-18T04:00:48.786Z,20.25
2023-05-18T04:05:54.615Z,19.00
2023-05-18T04:10:59.607Z,23.75
2023-05-18T04:16:05.032Z,16.50
2023-05-18T04:21:11.227Z,19.75
2023-05-18T04:26:21.407Z,21.50
2023-05-18T04:31:29.240Z,21.25
2023-05-18T04:36:36.444Z,23.50
2023-05-18T04:41:43.604Z,25.00
2023-05-18T04:46:48.682Z,21.50
2023-05-18T04:51:58.279Z,21.50
2023-05-18T04:57:05.032Z,22.00
2023-05-18T05:02:10.216Z,22.00
2023-05-18T05:07:15.434Z,11.75
2023-05-18T05:12:23.203Z,16.00
2023-05-18T05:17:28.428Z,14.75
2023-05-18T05:22:33.588Z,12.50
2023-05-18T05:27:39.778Z,10.50
2023-05-18T05:32:45.077Z,11.00
2023-05-18T05:37:50.239Z,9.25
2023-05-18T05:42:55.295Z,9.25
2023-05-18T05:48:01.017Z,6.75
2023-05-18T05:53:07.731Z,8.00
2023-05-18T05:58:16.033Z,9.00
2023-05-18T06:03:27.188Z,8.00
2023-05-18T06:08:35.162Z,11.00
2023-05-18T06:13:40.257Z,9.50
2023-05-18T06:18:46.603Z,8.50
2023-05-18T06:23:51.937Z,9.75
2023-05-18T06:29:07.313Z,8.00
2023-05-18T06:34:30.677Z,5.50
2023-05-18T06:39:35.463Z,9.75
2023-05-18T06:44:41.400Z,6.50
2023-05-18T06:49:54.620Z,9.25
2023-05-18T06:55:02.531Z,7.75
2023-05-18T07:00:09.317Z,8.50
2023-05-18T07:05:14.780Z,6.75
2023-05-18T07:10:27.070Z,9.25
2023-05-18T07:15:33.153Z,7.75
2023-05-18T07:20:44.529Z,8.50
2023-05-18T07:25:50.624Z,6.50
2023-05-18T07:30:55.428Z,10.00
2023-05-18T07:36:00.180Z,11.00
2023-05-18T07:41:05.211Z,10.00
2023-05-18T07:46:12.038Z,7.25
2023-05-18T07:51:17.801Z,8.00
2023-05-18T07:56:24.863Z,8.25
2023-05-18T08:01:31.680Z,10.75
2023-05-18T08:06:36.708Z,9.50
2023-05-18T08:11:41.624Z,12.25
2023-05-18T08:16:47.737Z,13.75
2023-05-18T08:21:52.604Z,11.00
2023-05-18T08:27:04.958Z,10.25
2023-05-18T08:32:09.976Z,12.75
2023-05-18T08:37:18.861Z,11.75
2023-05-18T08:42:45.693Z,14.25
2023-05-18T08:47:59.374Z,13.25
2023-05-18T08:53:07.056Z,13.00
2023-05-18T08:58:15.914Z,15.75
2023-05-18T09:03:23.652Z,11.00
2023-05-18T09:08:28.933Z,10.00
2023-05-18T09:13:33.842Z,12.50
2023-05-18T09:18:38.586Z,14.75
2023-05-18T09:23:43.798Z,10.00
2023-05-18T09:28:51.394Z,14.75
2023-05-18T09:33:56.329Z,14.25
2023-05-18T09:39:01.254Z,13.00
2023-05-18T09:44:10.689Z,12.50
2023-05-18T09:49:23.200Z,13.50
2023-05-18T09:54:28.391Z,13.25
2023-05-18T09:59:34.879Z,15.25
2023-05-18T10:04:44.406Z,14.25
2023-05-18T10:10:02.134Z,17.00
2023-05-18T10:15:11.039Z,13.00
2023-05-18T10:20:20.440Z,17.25
2023-05-18T10:25:27.970Z,20.75
2023-05-18T10:30:34.081Z,21.00
2023-05-18T10:35:40.808Z,20.50
2023-05-18T10:40:46.792Z,17.50
2023-05-18T10:46:10.713Z,26.50
2023-05-18T10:51:17.703Z,24.00
2023-05-18T10:56:25.282Z,20.75
2023-05-18T11:01:30.986Z,26.00
2023-05-18T11:06:36.840Z,26.25
2023-05-18T11:12:02.455Z,28.00
2023-05-18T11:17:19.836Z,32.25
2023-05-18T11:22:24.642Z,29.00
2023-05-18T11:27:30.525Z,24.50
2023-05-18T11:32:36.072Z,27.00
2023-05-18T11:37:41.717Z,26.25
2023-05-18T11:43:00.351Z,23.75
2023-05-18T11:48:06.607Z,23.00
2023-05-18T11:53:17.642Z,25.00
2023-05-18T11:58:23.802Z,26.75
2023-05-18T12:03:29.093Z,26.25
2023-05-18T12:08:34.603Z,23.75
2023-05-18T12:13:39.659Z,19.75
2023-05-18T12:18:50.396Z,16.25
2023-05-18T12:24:13.512Z,20.25
2023-05-18T12:29:21.498Z,18.75
2023-05-18T12:34:33.343Z,14.00
2023-05-18T12:39:38.585Z,13.25
2023-05-18T12:44:47.492Z,11.25
2023-05-18T12:49:52.556Z,13.75
2023-05-18T12:55:02.184Z,12.50
2023-05-18T13:00:11.938Z,14.50
2023-05-18T13:05:17.110Z,13.25
2023-05-18T13:10:22.523Z,10.25
2023-05-18T13:15:28.732Z,13.75
2023-05-18T13:20:37.028Z,14.50
2023-05-18T13:25:43.693Z,13.25
2023-05-18T13:30:50.341Z,10.75
2023-05-18T13:35:55.836Z,12.00
2023-05-18T13:41:00.866Z,11.50
2023-05-18T13:46:05.970Z,10.75
2023-05-18T13:51:10.917Z,12.00
2023-05-18T13:56:15.993Z,12.25
2023-05-18T14:01:23.125Z,11.75
2023-05-18T14:06:29.124Z,11.00
2023-05-18T14:11:38.431Z,12.50
2023-05-18T14:16:43.939Z,11.25
2023-05-18T14:21:49.179Z,12.75
2023-05-18T14:26:54.991Z,11.00
2023-05-18T14:31:59.951Z,10.25
2023-05-18T14:37:05.561Z,12.00
2023-05-18T14:42:10.646Z,12.50
2023-05-18T14:47:15.532Z,10.75
2023-05-18T14:52:20.820Z,12.50
2023-05-18T14:57:26.799Z,14.25
2023-05-18T15:02:32.446Z,12.75
2023-05-18T15:07:37.999Z,13.75
2023-05-18T15:12:43.160Z,11.25
2023-05-18T15:17:49.360Z,12.50
2023-05-18T15:22:54.896Z,14.75
2023-05-18T15:28:00.003Z,14.50
2023-05-18T15:33:05.298Z,11.50
2023-05-18T15:38:10.550Z,15.00
2023-05-18T15:43:15.668Z,17.25
2023-05-18T15:48:20.960Z,19.25
2023-05-18T15:53:25.970Z,17.00
2023-05-18T15:58:31.008Z,18.25
2023-05-18T16:03:36.435Z,19.25
2023-05-18T16:08:41.707Z,18.75
2023-05-18T16:13:46.688Z,20.50
2023-05-18T16:18:51.667Z,19.25
2023-05-18T16:23:56.875Z,20.25
2023-05-18T16:29:01.750Z,24.75
2023-05-18T16:34:06.447Z,24.00
2023-05-18T16:39:11.702Z,19.50
2023-05-18T16:44:16.594Z,23.50
2023-05-18T16:49:22.160Z,19.25
2023-05-18T16:54:27.184Z,27.25
2023-05-18T16:59:31.822Z,21.25
2023-05-18T17:04:36.770Z,22.00
2023-05-18T17:09:42.815Z,22.50
2023-05-18T17:14:48.564Z,26.50
2023-05-18T17:19:55.112Z,28.25
2023-05-18T17:25:00.126Z,26.50
2023-05-18T17:30:05.323Z,24.25
2023-05-18T17:35:13.338Z,24.75
2023-05-18T17:40:19.184Z,31.75
2023-05-18T17:45:24.047Z,31.75
2023-05-18T17:50:28.706Z,31.00
2023-05-18T17:55:33.667Z,28.75
2023-05-18T18:00:38.575Z,29.25
2023-05-18T18:05:43.750Z,30.75
2023-05-18T18:10:49.208Z,29.00
2023-05-18T18:15:54.466Z,29.25
2023-05-18T18:20:59.688Z,30.25
2023-05-18T18:26:05.460Z,28.75
2023-05-18T18:31:10.598Z,33.75
2023-05-18T18:36:15.678Z,31.25
2023-05-18T18:41:21.507Z,31.00
2023-05-18T18:46:26.507Z,31.50
2023-05-18T18:51:31.442Z,29.75
2023-05-18T18:56:36.524Z,29.00
2023-05-18T19:01:41.277Z,28.75
2023-05-18T19:06:46.118Z,28.75
2023-05-18T19:11:51.050Z,31.25
2023-05-18T19:16:56.082Z,29.25
2023-05-18T19:22:00.948Z,29.00
2023-05-18T19:27:05.987Z,31.75
2023-05-18T19:32:11.314Z,31.50
2023-05-18T19:37:16.560Z,29.00
2023-05-18T19:42:21.696Z,31.50
2023-05-18T19:47:26.511Z,30.00
2023-05-18T19:52:31.712Z,30.75
2023-05-18T19:57:37.122Z,30.00
2023-05-18T20:02:41.832Z,31.75
2023-05-18T20:07:46.779Z,28.25
2023-05-18T20:12:51.651Z,34.00
2023-05-18T20:17:56.483Z,32.50
2023-05-18T20:23:01.998Z,33.25
2023-05-18T20:28:09.674Z,31.00
2023-05-18T20:33:15.163Z,32.00
2023-05-18T20:38:21.084Z,34.75
2023-05-18T20:43:26.705Z,33.00
2023-05-18T20:48:33.201Z,36.25
2023-05-18T20:53:38.083Z,35.50
2023-05-18T20:58:44.005Z,33.75
2023-05-18T21:03:49.312Z,34.00
2023-05-18T21:08:54.429Z,39.00
2023-05-18T21:13:59.279Z,38.75
2023-05-18T21:19:04.190Z,37.50
2023-05-18T21:24:12.215Z,39.75
2023-05-18T21:29:18.193Z,40.75
2023-05-18T21:34:23.077Z,38.50
2023-05-18T21:39:27.832Z,41.75
2023-05-18T21:44:32.545Z,39.25
2023-05-18T21:49:37.803Z,41.50
2023-05-18T21:54:42.695Z,41.75
2023-05-18T21:59:47.433Z,42.25
2023-05-18T22:04:52.058Z,43.50
2023-05-18T22:09:57.110Z,48.25
2023-05-18T22:15:02.194Z,44.25
2023-05-18T22:20:10.912Z,46.00
2023-05-18T22:25:18.296Z,41.50
2023-05-18T22:30:25.258Z,42.25
2023-05-18T22:35:30.204Z,40.00
2023-05-18T22:40:35.116Z,42.50
2023-05-18T22:45:40.143Z,41.75
2023-05-18T22:50:47.927Z,40.75
2023-05-18T22:55:52.956Z,37.50
2023-05-18T23:00:57.929Z,39.25
2023-05-18T23:06:04.536Z,36.00
2023-05-18T23:11:09.382Z,37.75
2023-05-18T23:16:14.431Z,39.00
2023-05-18T23:21:19.536Z,37.75
2023-05-18T23:26:25.126Z,36.25
2023-05-18T23:31:30.151Z,40.75
2023-05-18T23:36:38.099Z,37.75
2023-05-18T23:41:43.693Z,38.50
2023-05-18T23:46:48.774Z,38.00
2023-05-18T23:51:54.151Z,37.50
2023-05-18T23:57:00.215Z,37.50
